Terminal Aerodrome Forecast
Issued by NWS Charleston, WV

Current Version | Previous Version | Graphics & Text | Print | Product List | Glossary On
Versions: 1 2 3 4 5 6 7 8 9 10 11 12 13 14 15 16 17 18 19 20 21 22 23 24 25 26 27
000
FTUS41 KRLX 210241 AAA
TAFPKB
TAF AMD
KPKB 210241Z 2103/2124 00000KT P6SM SCT110
     FM210600 14006KT P6SM BKN060
     FM211200 16007KT P6SM SHRA BKN060
     FM211400 17008KT 6SM SHRA BR BKN025
     FM211800 18007KT 3SM SHRA BR OVC010=

USA.gov is the U.S. government's official web portal to all federal, state and local government web resources and services.